createdAt,value
2022-09-26T00:01:43.950Z,6.28
2022-09-26T00:04:22.719Z,6.25
2022-09-26T00:06:54.143Z,6.15
2022-09-26T00:09:24.179Z,6.30
2022-09-26T00:11:53.417Z,6.20
2022-09-26T00:19:19.654Z,6.22
2022-09-26T00:21:48.728Z,6.65
2022-09-26T00:24:18.868Z,5.57
2022-09-26T00:26:47.309Z,6.20
2022-09-26T00:29:16.365Z,5.97
2022-09-26T00:31:47.665Z,6.28
2022-09-26T00:34:18.159Z,5.65
2022-09-26T00:36:46.870Z,6.00
2022-09-26T00:39:17.282Z,5.78
2022-09-26T00:41:47.446Z,6.03
2022-09-26T00:44:38.299Z,5.78
2022-09-26T00:47:12.993Z,5.90
2022-09-26T00:49:45.303Z,5.82
2022-09-26T00:52:18.266Z,6.45
2022-09-26T00:54:51.306Z,6.13
2022-09-26T00:57:24.933Z,5.97
2022-09-26T00:59:59.694Z,5.45
2022-09-26T01:02:29.255Z,5.50
2022-09-26T01:04:58.867Z,6.22
2022-09-26T01:07:31.073Z,6.00
2022-09-26T01:10:02.696Z,5.68
2022-09-26T01:12:37.416Z,6.30
2022-09-26T01:15:09.240Z,6.20
2022-09-26T01:17:40.082Z,5.55
2022-09-26T01:20:24.432Z,5.97
2022-09-26T01:23:35.975Z,5.60
2022-09-26T01:26:35.984Z,6.38
2022-09-26T01:29:41.892Z,6.03
2022-09-26T01:32:46.019Z,5.97
2022-09-26T01:35:36.848Z,6.18
2022-09-26T01:38:20.255Z,5.47
2022-09-26T01:41:03.035Z,5.60
2022-09-26T01:43:37.334Z,5.80
2022-09-26T01:46:15.185Z,5.72
2022-09-26T01:48:48.655Z,6.25
2022-09-26T01:51:22.790Z,5.40
2022-09-26T01:53:57.609Z,5.88
2022-09-26T01:56:29.563Z,6.00
2022-09-26T01:59:03.219Z,5.75
2022-09-26T02:01:37.457Z,5.38
2022-09-26T02:04:12.618Z,5.55
2022-09-26T02:06:49.334Z,7.18
2022-09-26T02:09:23.872Z,5.55
2022-09-26T02:11:57.085Z,5.65
2022-09-26T02:14:30.755Z,6.80
2022-09-26T02:17:06.908Z,5.55
2022-09-26T02:19:43.314Z,5.32
2022-09-26T02:22:11.849Z,5.18
2022-09-26T02:24:40.798Z,6.20
2022-09-26T02:27:09.602Z,5.63
2022-09-26T02:29:39.487Z,5.47
2022-09-26T02:32:16.118Z,5.30
2022-09-26T02:34:49.462Z,5.80
2022-09-26T02:37:22.081Z,5.63
2022-09-26T02:39:52.083Z,5.88
2022-09-26T02:42:31.575Z,5.60
2022-09-26T02:45:13.750Z,5.60
2022-09-26T02:48:08.326Z,5.63
2022-09-26T02:50:54.954Z,5.13
2022-09-26T02:53:49.580Z,5.63
2022-09-26T02:56:28.422Z,6.03
2022-09-26T02:59:04.241Z,5.25
2022-09-26T03:01:54.229Z,5.35
2022-09-26T03:04:32.348Z,5.47
2022-09-26T03:07:08.596Z,5.55
2022-09-26T03:09:38.035Z,5.30
2022-09-26T03:12:10.142Z,5.28
2022-09-26T03:14:44.026Z,4.95
2022-09-26T03:17:13.867Z,5.43
2022-09-26T03:19:47.542Z,5.10
2022-09-26T03:22:18.279Z,4.78
2022-09-26T03:24:47.219Z,4.88
2022-09-26T03:27:19.297Z,5.10
2022-09-26T03:29:50.517Z,5.40
2022-09-26T03:32:23.852Z,4.85
2022-09-26T03:34:52.365Z,4.70
2022-09-26T03:37:22.234Z,4.85
2022-09-26T03:39:51.849Z,5.05
2022-09-26T03:42:46.539Z,5.18
2022-09-26T03:45:15.070Z,4.70
2022-09-26T03:48:01.647Z,5.22
2022-09-26T03:50:30.358Z,4.30
2022-09-26T03:53:00.181Z,5.15
2022-09-26T03:55:28.930Z,4.70
2022-09-26T03:57:57.452Z,4.65
2022-09-26T04:00:32.802Z,4.60
2022-09-26T04:03:02.913Z,4.75
2022-09-26T04:05:40.353Z,4.85
2022-09-26T04:08:10.460Z,5.70
2022-09-26T04:10:43.055Z,5.20
2022-09-26T04:13:19.879Z,5.50
2022-09-26T04:16:01.281Z,5.45
2022-09-26T04:18:30.598Z,6.03
2022-09-26T04:20:59.934Z,5.22
2022-09-26T04:23:31.170Z,5.88
2022-09-26T04:26:05.294Z,6.00
2022-09-26T04:28:35.404Z,5.93
2022-09-26T04:31:07.565Z,5.55
2022-09-26T04:33:36.263Z,5.78
2022-09-26T04:36:11.956Z,5.88
2022-09-26T04:38:42.815Z,5.13
2022-09-26T04:41:19.786Z,5.75
2022-09-26T04:43:50.360Z,5.25
2022-09-26T04:46:25.755Z,6.07
2022-09-26T04:49:00.728Z,5.47
2022-09-26T04:51:31.684Z,5.75
2022-09-26T04:54:02.215Z,6.50
2022-09-26T04:56:35.324Z,6.03
2022-09-26T04:59:03.935Z,6.35
2022-09-26T05:01:42.143Z,5.70
2022-09-26T05:04:27.459Z,6.65
2022-09-26T05:06:58.050Z,5.18
2022-09-26T05:09:35.866Z,5.32
2022-09-26T05:12:18.344Z,5.75
2022-09-26T05:14:51.925Z,5.53
2022-09-26T05:17:21.666Z,5.35
2022-09-26T05:19:50.947Z,5.72
2022-09-26T05:22:26.715Z,5.30
2022-09-26T05:25:14.033Z,5.75
2022-09-26T05:27:42.822Z,5.05
2022-09-26T05:30:13.671Z,5.43
2022-09-26T05:32:42.699Z,5.47
2022-09-26T05:35:12.028Z,5.32
2022-09-26T05:37:43.120Z,5.25
2022-09-26T05:40:31.642Z,5.40
2022-09-26T05:43:04.076Z,5.35
2022-09-26T05:45:32.832Z,5.60
2022-09-26T05:48:03.733Z,5.63
2022-09-26T05:50:32.452Z,5.50
2022-09-26T05:53:01.833Z,5.40
2022-09-26T05:55:31.833Z,5.80
2022-09-26T05:58:07.867Z,5.15
2022-09-26T06:00:55.321Z,5.68
2022-09-26T06:03:24.141Z,5.10
2022-09-26T06:06:07.766Z,5.60
2022-09-26T06:08:38.063Z,5.65
2022-09-26T06:11:30.924Z,5.18
2022-09-26T06:14:00.927Z,5.35
2022-09-26T06:16:30.758Z,5.10
2022-09-26T06:19:01.174Z,5.25
2022-09-26T06:21:30.000Z,5.10
2022-09-26T06:24:07.118Z,5.93
2022-09-26T06:26:38.436Z,5.60
2022-09-26T06:29:07.899Z,5.15
2022-09-26T06:31:38.551Z,4.95
2022-09-26T06:34:14.098Z,5.20
2022-09-26T06:37:06.159Z,4.75
2022-09-26T06:39:37.165Z,6.20
2022-09-26T06:42:09.107Z,4.90
2022-09-26T06:44:52.079Z,5.90
2022-09-26T06:47:27.283Z,5.65
2022-09-26T06:50:14.811Z,5.50
2022-09-26T06:52:47.453Z,5.00
2022-09-26T06:57:47.315Z,5.30
2022-09-26T07:00:17.161Z,5.72
2022-09-26T07:03:15.601Z,5.70
2022-09-26T07:05:50.277Z,5.28
2022-09-26T07:08:18.827Z,5.97
2022-09-26T07:10:48.380Z,6.10
2022-09-26T07:13:28.820Z,5.47
2022-09-26T07:15:59.720Z,5.50
2022-09-26T07:18:45.069Z,5.05
2022-09-26T07:21:20.655Z,5.60
2022-09-26T07:23:49.314Z,5.90
2022-09-26T07:26:20.983Z,5.07
2022-09-26T07:28:54.765Z,5.93
2022-09-26T07:31:26.377Z,5.63
2022-09-26T07:34:08.725Z,5.00
2022-09-26T07:36:40.718Z,5.82
2022-09-26T07:39:10.645Z,6.05
2022-09-26T07:41:39.388Z,5.85
2022-09-26T07:47:27.455Z,6.45
2022-09-26T07:50:16.708Z,6.30
2022-09-26T07:53:00.599Z,6.10
2022-09-26T07:55:29.700Z,5.88
2022-09-26T07:58:16.331Z,5.82
2022-09-26T08:01:07.386Z,5.53
2022-09-26T08:03:58.325Z,6.75
2022-09-26T08:06:35.120Z,5.93
2022-09-26T08:09:03.848Z,5.72
2022-09-26T08:11:50.721Z,5.60
2022-09-26T08:14:49.806Z,5.45
2022-09-26T08:20:08.496Z,5.50
2022-09-26T08:22:37.726Z,5.55
2022-09-26T08:25:08.039Z,5.00
2022-09-26T08:27:59.698Z,5.00
2022-09-26T08:30:31.487Z,5.25
2022-09-26T08:33:04.844Z,5.45
2022-09-26T08:35:38.807Z,4.93
2022-09-26T08:38:34.126Z,5.60
2022-09-26T08:41:46.279Z,5.43
2022-09-26T08:44:53.256Z,6.18
2022-09-26T08:47:59.541Z,5.47
2022-09-26T08:50:44.475Z,6.10
2022-09-26T08:53:17.911Z,5.68
2022-09-26T08:55:55.170Z,5.15
2022-09-26T08:58:57.566Z,5.63
2022-09-26T09:01:32.524Z,6.07
2022-09-26T09:04:17.936Z,5.47
2022-09-26T09:06:48.069Z,6.00
2022-09-26T09:09:18.364Z,5.90
2022-09-26T09:15:23.539Z,5.68
2022-09-26T09:18:21.562Z,5.90
2022-09-26T09:21:31.466Z,6.15
2022-09-26T09:30:19.066Z,5.32
2022-09-26T09:33:14.399Z,5.93
2022-09-26T09:35:54.887Z,5.93
2022-09-26T09:38:47.236Z,5.43
2022-09-26T09:41:37.685Z,4.90
2022-09-26T09:44:20.704Z,6.10
2022-09-26T09:46:51.085Z,5.10
2022-09-26T09:49:22.563Z,5.57
2022-09-26T09:52:05.470Z,5.85
2022-09-26T09:54:45.661Z,5.22
2022-09-26T09:57:38.641Z,5.55
2022-09-26T10:00:16.734Z,5.30
2022-09-26T10:03:20.341Z,6.57
2022-09-26T10:05:53.876Z,5.22
2022-09-26T10:08:34.156Z,5.95
2022-09-26T10:11:13.147Z,5.65
2022-09-26T10:14:20.610Z,5.90
2022-09-26T10:17:25.579Z,5.80
2022-09-26T10:20:04.320Z,5.97
2022-09-26T10:22:45.207Z,6.43
2022-09-26T10:25:34.340Z,5.50
2022-09-26T10:28:05.392Z,5.85
2022-09-26T10:30:50.246Z,5.85
2022-09-26T10:33:30.433Z,7.15
2022-09-26T10:36:20.082Z,6.70
2022-09-26T10:39:20.642Z,6.40
2022-09-26T10:41:58.331Z,6.18
2022-09-26T10:44:29.358Z,6.28
2022-09-26T10:47:13.591Z,5.97
2022-09-26T10:50:04.248Z,6.05
2022-09-26T10:53:17.415Z,5.65
2022-09-26T10:55:51.407Z,6.00
2022-09-26T10:58:24.191Z,4.95
2022-09-26T11:00:57.531Z,5.00
2022-09-26T11:03:40.803Z,5.78
2022-09-26T11:06:30.915Z,5.05
2022-09-26T11:09:06.713Z,5.25
2022-09-26T11:11:58.657Z,5.32
2022-09-26T11:14:34.527Z,5.50
2022-09-26T11:17:11.853Z,4.65
2022-09-26T11:19:54.652Z,4.90
2022-09-26T11:22:33.308Z,4.80
2022-09-26T11:25:08.646Z,4.88
2022-09-26T11:27:44.135Z,4.40
2022-09-26T11:30:21.053Z,4.50
2022-09-26T11:33:00.596Z,4.80
2022-09-26T11:36:06.441Z,4.30
2022-09-26T11:38:47.198Z,4.25
2022-09-26T11:41:40.372Z,4.40
2022-09-26T11:44:53.191Z,4.05
2022-09-26T11:47:43.431Z,4.22
2022-09-26T11:50:30.340Z,4.15
2022-09-26T11:53:45.976Z,3.85
2022-09-26T11:56:53.285Z,4.18
2022-09-26T11:59:36.349Z,4.35
2022-09-26T12:02:24.885Z,3.65
2022-09-26T12:05:04.541Z,4.10
2022-09-26T12:07:43.755Z,4.10
2022-09-26T12:10:26.405Z,3.72
2022-09-26T12:13:11.222Z,3.50
2022-09-26T12:15:46.543Z,3.78
2022-09-26T12:18:24.249Z,3.97
2022-09-26T12:21:05.789Z,3.70
2022-09-26T12:23:41.267Z,3.33
2022-09-26T12:26:20.075Z,4.00
2022-09-26T12:29:11.126Z,3.70
2022-09-26T12:31:55.096Z,4.07
2022-09-26T12:34:41.550Z,3.70
2022-09-26T12:37:26.825Z,3.70
2022-09-26T12:40:10.342Z,3.53
2022-09-26T12:42:54.899Z,4.45
2022-09-26T12:45:54.039Z,3.75
2022-09-26T12:51:15.621Z,3.75
2022-09-26T12:54:10.199Z,3.65
2022-09-26T12:56:51.114Z,3.75
2022-09-26T12:59:47.299Z,3.30
2022-09-26T13:02:40.670Z,3.10
2022-09-26T13:05:25.720Z,4.75
2022-09-26T13:08:05.880Z,3.78
2022-09-26T13:10:42.106Z,3.05
2022-09-26T13:13:26.585Z,3.40
2022-09-26T13:16:14.974Z,3.47
2022-09-26T13:18:48.612Z,3.53
2022-09-26T13:21:24.881Z,3.00
2022-09-26T13:23:58.357Z,3.05
2022-09-26T13:26:30.811Z,3.15
2022-09-26T13:29:17.522Z,3.30
2022-09-26T13:31:55.545Z,3.30
2022-09-26T13:34:30.204Z,3.28
2022-09-26T13:37:00.526Z,3.00
2022-09-26T13:39:35.747Z,3.47
2022-09-26T13:42:10.854Z,3.20
2022-09-26T13:44:56.087Z,3.10
2022-09-26T13:47:36.382Z,3.17
2022-09-26T13:50:23.458Z,3.75
2022-09-26T13:53:04.037Z,3.10
2022-09-26T13:55:32.576Z,3.35
2022-09-26T13:58:07.568Z,3.28
2022-09-26T14:00:57.835Z,3.25
2022-09-26T14:03:39.198Z,2.95
2022-09-26T14:06:27.323Z,2.95
2022-09-26T14:09:25.828Z,3.27
2022-09-26T14:12:18.370Z,3.03
2022-09-26T14:14:52.171Z,3.20
2022-09-26T14:18:02.607Z,3.10
2022-09-26T14:20:39.670Z,3.20
2022-09-26T14:23:44.048Z,3.30
2022-09-26T14:26:15.037Z,3.20
2022-09-26T14:28:51.648Z,3.10
2022-09-26T14:31:35.373Z,3.45
2022-09-26T14:34:23.750Z,3.33
2022-09-26T14:36:55.237Z,3.42
2022-09-26T14:39:29.155Z,3.30
2022-09-26T14:41:58.912Z,3.17
2022-09-26T14:44:36.344Z,3.40
2022-09-26T14:47:09.650Z,3.20
2022-09-26T14:49:38.359Z,3.10
2022-09-26T14:52:19.109Z,3.10
2022-09-26T14:54:49.251Z,3.25
2022-09-26T14:57:22.901Z,3.30
2022-09-26T14:59:51.806Z,3.15
2022-09-26T15:02:28.919Z,3.05
2022-09-26T15:05:05.360Z,3.40
2022-09-26T15:07:44.350Z,3.13
2022-09-26T15:10:25.670Z,3.80
2022-09-26T15:13:02.342Z,3.30
2022-09-26T15:15:39.127Z,3.15
2022-09-26T15:18:14.942Z,2.90
2022-09-26T15:20:49.086Z,3.30
2022-09-26T15:23:27.592Z,3.10
2022-09-26T15:25:57.698Z,3.03
2022-09-26T15:28:26.247Z,3.60
2022-09-26T15:31:21.625Z,2.80
2022-09-26T15:33:58.422Z,3.15
2022-09-26T15:36:30.108Z,3.63
2022-09-26T15:39:01.159Z,3.40
2022-09-26T15:41:47.813Z,3.63
2022-09-26T15:44:21.559Z,3.67
2022-09-26T15:46:51.548Z,3.80
2022-09-26T15:49:22.548Z,3.45
2022-09-26T15:51:54.794Z,3.60
2022-09-26T15:54:28.830Z,3.80
2022-09-26T15:57:03.016Z,3.20
2022-09-26T15:59:40.030Z,3.30
2022-09-26T16:02:23.592Z,3.22
2022-09-26T16:04:54.869Z,3.42
2022-09-26T16:07:26.628Z,3.30
2022-09-26T16:09:58.227Z,3.58
2022-09-26T16:12:30.322Z,3.28
2022-09-26T16:15:02.960Z,3.53
2022-09-26T16:17:36.281Z,3.40
2022-09-26T16:20:23.952Z,3.53
2022-09-26T16:22:53.798Z,3.28
2022-09-26T16:25:31.609Z,4.18
2022-09-26T16:28:03.734Z,3.17
2022-09-26T16:30:43.308Z,3.30
2022-09-26T16:33:31.632Z,3.45
2022-09-26T16:36:10.515Z,3.27
2022-09-26T16:38:39.465Z,3.25
2022-09-26T16:41:49.045Z,3.08
2022-09-26T16:44:28.777Z,3.50
2022-09-26T16:47:02.631Z,3.22
2022-09-26T16:49:40.158Z,3.40
2022-09-26T16:52:27.076Z,3.40
2022-09-26T16:54:56.335Z,3.45
2022-09-26T16:57:29.074Z,3.65
2022-09-26T17:00:15.436Z,3.70
2022-09-26T17:02:44.434Z,3.58
2022-09-26T17:05:18.766Z,3.90
2022-09-26T17:07:48.870Z,3.40
2022-09-26T17:10:19.492Z,3.50
2022-09-26T17:12:51.637Z,3.60
2022-09-26T17:15:28.843Z,3.20
2022-09-26T17:17:58.417Z,3.50
2022-09-26T17:20:27.329Z,4.07
2022-09-26T17:22:56.135Z,3.08
2022-09-26T17:25:26.123Z,3.55
2022-09-26T17:27:59.781Z,3.80
2022-09-26T17:30:28.402Z,3.78
2022-09-26T17:32:59.058Z,4.00
2022-09-26T17:35:29.866Z,3.65
2022-09-26T17:37:58.603Z,3.80
2022-09-26T17:40:29.699Z,3.35
2022-09-26T17:43:02.031Z,3.17
2022-09-26T17:45:33.250Z,3.58
2022-09-26T17:48:04.055Z,3.55
2022-09-26T17:50:36.253Z,3.42
2022-09-26T17:53:05.001Z,3.47
2022-09-26T17:55:33.845Z,3.53
2022-09-26T17:58:05.297Z,3.53
2022-09-26T18:00:38.987Z,3.40
2022-09-26T18:03:19.127Z,3.58
2022-09-26T18:05:48.416Z,3.60
2022-09-26T18:08:22.252Z,3.45
2022-09-26T18:10:54.355Z,3.30
2022-09-26T18:13:26.895Z,8.25
2022-09-26T18:15:57.625Z,3.58
2022-09-26T18:18:29.526Z,4.40
2022-09-26T18:21:03.769Z,3.88
2022-09-26T18:23:41.304Z,3.90
2022-09-26T18:26:14.588Z,3.67
2022-09-26T18:28:45.334Z,4.40
2022-09-26T18:31:14.063Z,3.72
2022-09-26T18:33:42.732Z,4.15
2022-09-26T18:36:13.390Z,3.70
2022-09-26T18:38:41.912Z,4.45
2022-09-26T18:41:11.714Z,4.38
2022-09-26T18:43:42.511Z,3.72
2022-09-26T18:46:16.976Z,3.60
2022-09-26T18:48:46.645Z,3.90
2022-09-26T18:51:15.652Z,3.80
2022-09-26T18:53:44.723Z,4.28
2022-09-26T18:58:59.396Z,4.10
2022-09-26T19:01:33.202Z,4.00
2022-09-26T19:04:04.154Z,3.80
2022-09-26T19:06:37.403Z,4.57
2022-09-26T19:09:08.001Z,3.78
2022-09-26T19:11:36.786Z,4.13
2022-09-26T19:14:14.127Z,4.25
2022-09-26T19:16:45.575Z,3.63
2022-09-26T19:19:14.608Z,3.80
2022-09-26T19:21:45.164Z,3.45
2022-09-26T19:24:20.801Z,4.07
2022-09-26T19:26:52.920Z,3.55
2022-09-26T19:29:28.875Z,3.83
2022-09-26T19:31:59.584Z,3.72
2022-09-26T19:34:32.563Z,3.60
2022-09-26T19:37:03.318Z,3.63
2022-09-26T19:39:32.653Z,3.78
2022-09-26T19:47:00.475Z,3.20
2022-09-26T19:49:32.102Z,3.42
2022-09-26T19:52:01.232Z,3.47
2022-09-26T19:54:30.129Z,3.92
2022-09-26T19:56:58.895Z,6.97
2022-09-26T19:59:27.839Z,3.65
2022-09-26T20:01:56.545Z,3.53
2022-09-26T20:04:26.817Z,3.65
2022-09-26T20:06:55.337Z,3.45
2022-09-26T20:09:23.821Z,3.03
2022-09-26T20:11:52.417Z,3.30
2022-09-26T20:14:27.143Z,4.00
2022-09-26T20:16:58.531Z,3.53
2022-09-26T20:19:37.329Z,3.40
2022-09-26T20:22:07.967Z,3.65
2022-09-26T20:24:39.806Z,3.10
2022-09-26T20:27:14.242Z,3.00
2022-09-26T20:30:00.505Z,3.47
2022-09-26T20:32:29.180Z,3.28
2022-09-26T20:35:00.878Z,3.30
2022-09-26T20:37:36.010Z,3.30
2022-09-26T20:40:13.558Z,3.10
2022-09-26T20:42:45.349Z,3.33
2022-09-26T20:45:17.582Z,3.90
2022-09-26T20:47:46.440Z,3.55
2022-09-26T20:50:19.810Z,3.42
2022-09-26T20:52:48.539Z,3.67
2022-09-26T20:55:18.262Z,3.00
2022-09-26T20:57:48.078Z,3.13
2022-09-26T21:00:17.932Z,3.40
2022-09-26T21:02:48.149Z,3.20
2022-09-26T21:05:20.368Z,3.08
2022-09-26T21:07:49.026Z,3.38
2022-09-26T21:10:23.259Z,3.72
2022-09-26T21:12:52.207Z,3.60
2022-09-26T21:15:21.781Z,3.28
2022-09-26T21:17:52.229Z,3.10
2022-09-26T21:20:27.036Z,3.10
2022-09-26T21:23:15.317Z,3.05
2022-09-26T21:25:43.920Z,3.40
2022-09-26T21:28:22.759Z,3.55
2022-09-26T21:30:51.623Z,3.15
2022-09-26T21:33:21.877Z,3.20
2022-09-26T21:35:52.466Z,3.40
2022-09-26T21:38:22.345Z,3.08
2022-09-26T21:40:55.217Z,3.53
2022-09-26T21:43:26.992Z,3.35
2022-09-26T21:45:55.594Z,3.47
2022-09-26T21:48:24.297Z,3.22
2022-09-26T21:50:58.758Z,3.50
2022-09-26T21:53:31.075Z,3.13
2022-09-26T21:56:07.350Z,3.33
2022-09-26T21:58:39.493Z,3.20
2022-09-26T22:01:08.758Z,2.90
2022-09-26T22:03:37.405Z,3.00
2022-09-26T22:06:09.502Z,3.05
2022-09-26T22:08:38.398Z,3.40
2022-09-26T22:11:08.795Z,3.30
2022-09-26T22:13:37.689Z,3.60
2022-09-26T22:16:07.561Z,3.67
2022-09-26T22:18:37.304Z,3.83
2022-09-26T22:21:07.692Z,3.42
2022-09-26T22:23:36.876Z,2.90
2022-09-26T22:26:05.921Z,3.03
2022-09-26T22:28:34.801Z,3.03
2022-09-26T22:31:04.386Z,3.10
2022-09-26T22:33:32.994Z,2.92
2022-09-26T22:36:01.588Z,3.53
2022-09-26T22:38:33.573Z,2.60
2022-09-26T22:41:04.351Z,2.95
2022-09-26T22:43:33.986Z,3.08
2022-09-26T22:46:03.813Z,2.97
2022-09-26T22:48:33.810Z,2.80
2022-09-26T22:51:02.626Z,3.03
2022-09-26T22:53:34.950Z,3.10
2022-09-26T22:56:05.566Z,2.45
2022-09-26T22:58:36.788Z,3.33
2022-09-26T23:01:06.859Z,3.33
2022-09-26T23:03:35.975Z,3.05
2022-09-26T23:06:05.433Z,2.90
2022-09-26T23:08:36.118Z,3.17
2022-09-26T23:11:05.920Z,3.00
2022-09-26T23:13:35.308Z,3.22
2022-09-26T23:16:08.064Z,3.10
2022-09-26T23:18:38.129Z,3.05
2022-09-26T23:21:08.508Z,2.92
2022-09-26T23:23:39.517Z,3.22
2022-09-26T23:26:09.111Z,2.83
2022-09-26T23:28:37.585Z,3.25
2022-09-26T23:31:07.954Z,3.15
2022-09-26T23:33:37.195Z,3.03
2022-09-26T23:36:06.751Z,3.17
2022-09-26T23:38:37.771Z,3.15
2022-09-26T23:41:08.750Z,3.25
2022-09-26T23:43:37.307Z,3.00
2022-09-26T23:46:06.414Z,2.70
2022-09-26T23:51:04.028Z,3.13
2022-09-26T23:53:33.185Z,2.95
2022-09-26T23:56:06.061Z,3.10
2022-09-26T23:58:37.213Z,3.10
